Time;durP1;ratioP1;P1;durP2;ratioP2;P2;SDS_P1;SDS_P2;PMS_P1;PMS_P2;Temp;Humidity;BMP_temperature;BMP_pressure;BME280_temperature;BME280_humidity;BME280_pressure;Samples;Min_cycle;Max_cycle;Signal;HPM_P1;HPM_P2
2023/04/19 00:00:49;;;;;;;24.95;16.15;;;12.60;75.40;;;11.93;59.43;101595.47;5046823;28;20070;-74
2023/04/19 00:03:17;;;;;;;22.63;15.85;;;12.60;75.50;;;11.92;59.55;101599.19;5047267;28;20041;-76
2023/04/19 00:05:44;;;;;;;22.70;16.10;;;12.60;75.50;;;11.93;59.72;101604.31;5046295;28;20103;-74
2023/04/19 00:08:11;;;;;;;22.27;16.05;;;12.60;75.80;;;11.93;60.07;101598.16;5047107;28;20056;-74
2023/04/19 00:10:38;;;;;;;26.50;17.38;;;12.60;76.00;;;11.88;60.11;101598.72;5046954;28;20083;-74
2023/04/19 00:13:06;;;;;;;25.02;16.00;;;12.60;76.30;;;11.89;60.22;101602.22;5042082;28;20124;-75
2023/04/19 00:15:35;;;;;;;22.70;16.38;;;12.60;76.20;;;11.89;59.90;101588.84;5038672;28;20147;-75
2023/04/19 00:18:02;;;;;;;26.15;16.55;;;12.60;75.90;;;11.91;60.38;101594.81;5043459;28;20056;-76
2023/04/19 00:20:29;;;;;;;27.52;17.40;;;12.60;76.30;;;11.92;60.45;101594.66;5047358;28;20044;-74
2023/04/19 00:22:57;;;;;;;22.73;16.25;;;12.60;76.40;;;11.93;60.55;101590.13;5046346;28;20051;-75
2023/04/19 00:25:27;;;;;;;26.88;17.58;;;12.60;76.80;;;11.93;60.87;101588.28;5046232;28;20064;-74
2023/04/19 00:27:54;;;;;;;25.13;17.17;;;12.60;77.20;;;11.94;60.99;101594.44;5047596;28;20068;-73
2023/04/19 00:30:21;;;;;;;24.90;17.67;;;12.60;77.20;;;11.94;61.20;101600.63;5022895;28;20049;-73
2023/04/19 00:32:50;;;;;;;26.85;17.85;;;12.60;77.40;;;11.92;61.55;101586.63;5029509;28;20084;-74
2023/04/19 00:35:17;;;;;;;25.23;19.13;;;12.60;77.80;;;11.92;61.95;101593.81;5046437;28;20129;-73
2023/04/19 00:37:44;;;;;;;26.02;18.33;;;12.60;78.00;;;11.93;62.11;101582.94;5028395;28;20045;-74
2023/04/19 00:40:14;;;;;;;29.35;17.70;;;12.60;78.40;;;11.94;61.98;101586.44;5028997;28;20872;-74
2023/04/19 00:42:41;;;;;;;26.85;18.00;;;12.60;78.30;;;11.90;62.52;101588.66;5029119;28;20490;-74
2023/04/19 00:45:09;;;;;;;23.95;17.30;;;12.60;78.70;;;11.91;62.43;101589.47;5043854;28;20401;-75
2023/04/19 00:47:37;;;;;;;27.08;17.70;;;12.60;78.70;;;11.91;62.50;101584.13;5029613;28;20053;-76
2023/04/19 00:50:08;;;;;;;24.10;17.08;;;12.60;78.80;;;11.88;62.86;101592.56;5046351;28;20460;-72
2023/04/19 00:52:35;;;;;;;25.63;17.95;;;12.60;79.00;;;11.88;62.79;101590.69;5039393;28;20414;-76
2023/04/19 00:55:06;;;;;;;23.08;17.20;;;12.60;79.10;;;11.90;62.82;101590.50;5028116;28;20060;-73
2023/04/19 00:57:34;;;;;;;23.52;16.85;;;12.60;79.20;;;11.90;62.88;101601.19;5039671;28;20045;-75
2023/04/19 01:00:04;;;;;;;26.15;16.85;;;12.60;79.20;;;11.88;63.08;101588.03;5042949;28;20059;-75
2023/04/19 01:02:32;;;;;;;28.60;17.17;;;12.60;79.30;;;11.90;63.04;101588.66;5026612;28;20041;-75
2023/04/19 01:04:59;;;;;;;25.25;16.10;;;12.60;79.30;;;11.91;62.91;101590.34;5027924;28;20168;-74
2023/04/19 01:07:28;;;;;;;24.55;16.88;;;12.60;79.20;;;11.90;63.01;101585.16;5029563;28;20060;-76
2023/04/19 01:09:55;;;;;;;25.45;17.13;;;12.60;79.30;;;11.90;63.08;101585.16;5050385;28;20037;-74
2023/04/19 01:12:22;;;;;;;23.45;16.13;;;12.60;79.30;;;11.91;62.79;101579.63;5050418;28;20040;-75
2023/04/19 01:14:50;;;;;;;25.17;16.13;;;12.60;79.10;;;11.94;62.86;101583.75;5049516;28;20048;-75
2023/04/19 01:17:18;;;;;;;26.48;16.58;;;12.60;79.20;;;11.95;62.81;101580.88;5027244;28;20180;-72
2023/04/19 01:19:46;;;;;;;28.63;17.10;;;12.60;79.20;;;11.95;62.82;101570.19;5031803;28;20480;-73
2023/04/19 01:22:19;;;;;;;23.58;16.45;;;12.70;79.30;;;11.94;62.91;101573.88;5032702;28;20053;-74
2023/04/19 01:24:46;;;;;;;27.00;17.35;;;12.60;79.20;;;11.94;62.95;101570.38;5030674;28;20045;-73
2023/04/19 01:27:16;;;;;;;24.90;15.88;;;12.60;79.20;;;11.94;63.02;101570.38;5050601;28;20496;-74
2023/04/19 01:29:43;;;;;;;26.80;17.55;;;12.60;79.20;;;11.94;62.86;101565.03;5032174;28;20103;-74
2023/04/19 01:32:11;;;;;;;24.85;17.17;;;12.60;79.30;;;11.93;62.89;101564.22;5030656;28;20045;-74
2023/04/19 01:34:39;;;;;;;24.58;17.15;;;12.60;79.30;;;11.95;63.01;101561.34;5028870;28;20053;-74
2023/04/19 01:37:06;;;;;;;23.67;16.83;;;12.70;79.40;;;11.95;63.02;101551.47;5049700;28;20045;-74
2023/04/19 01:39:35;;;;;;;25.10;16.73;;;12.70;79.40;;;11.98;62.61;101560.97;5031874;28;20048;-73
2023/04/19 01:42:03;;;;;;;23.92;16.40;;;12.60;79.20;;;11.98;62.80;101555.63;5047341;28;20068;-75
2023/04/19 01:44:30;;;;;;;24.45;17.05;;;12.60;79.20;;;11.97;62.90;101567.34;5031933;28;20052;-74
2023/04/19 01:46:57;;;;;;;27.73;17.13;;;12.70;79.30;;;11.95;62.97;101562.16;5048990;28;20049;-75
2023/04/19 01:49:24;;;;;;;25.80;18.48;;;12.70;79.50;;;11.95;63.01;101559.50;5031068;28;20119;-74
2023/04/19 01:51:52;;;;;;;25.35;17.90;;;12.60;79.40;;;11.96;62.82;101563.03;5023563;28;20056;-74
2023/04/19 01:54:20;;;;;;;26.63;18.52;;;12.70;79.50;;;11.96;62.81;101555.00;5030541;28;20057;-73
2023/04/19 01:56:51;;;;;;;29.15;17.88;;;12.70;79.20;;;11.98;62.79;101556.44;5031530;28;20151;-74
2023/04/19 01:59:18;;;;;;;25.13;16.70;;;12.70;79.30;;;11.97;62.62;101552.13;5032554;28;20048;-74
2023/04/19 02:01:46;;;;;;;24.67;16.85;;;12.70;79.30;;;12.00;62.52;101558.91;5045010;28;20495;-73
2023/04/19 02:04:13;;;;;;;23.42;16.48;;;12.70;79.20;;;11.96;62.74;101557.69;5062078;28;20047;-74
2023/04/19 02:06:40;;;;;;;23.73;16.48;;;12.60;79.10;;;11.95;62.74;101548.81;5045230;28;20114;-75
2023/04/19 02:09:08;;;;;;;23.88;15.90;;;12.60;79.20;;;11.97;62.50;101549.44;5047594;28;20048;-73
2023/04/19 02:11:35;;;;;;;27.48;15.90;;;12.60;79.00;;;11.96;62.40;101546.97;5045018;28;20131;-73
2023/04/19 02:14:03;;;;;;;23.65;16.38;;;12.60;78.80;;;11.98;62.20;101545.75;5048958;28;20056;-74
2023/04/19 02:16:32;;;;;;;22.77;15.10;;;12.70;78.90;;;11.98;62.20;101552.94;5032830;28;20099;-74
2023/04/19 02:18:59;;;;;;;19.95;14.70;;;12.60;78.60;;;12.00;62.02;101548.22;5045068;28;20148;-74
2023/04/19 02:21:26;;;;;;;21.10;14.68;;;12.70;78.70;;;11.96;61.94;101546.97;5044984;28;20066;-74
2023/04/19 02:23:53;;;;;;;21.92;14.05;;;12.60;78.20;;;11.94;61.78;101559.69;5053415;28;20048;-76
2023/04/19 02:26:20;;;;;;;19.50;13.68;;;12.60;78.20;;;11.92;61.69;101549.22;5042365;28;20041;-75
2023/04/19 02:28:48;;;;;;;19.58;12.80;;;12.60;78.00;;;11.90;61.34;101548.56;5044780;28;20099;-73
2023/04/19 02:31:16;;;;;;;19.55;13.75;;;12.60;77.80;;;11.90;61.05;101555.75;5048424;28;20049;-75
2023/04/19 02:33:45;;;;;;;23.17;13.10;;;12.60;77.60;;;11.85;61.24;101551.81;5048465;28;20072;-74
2023/04/19 02:36:12;;;;;;;18.83;12.43;;;12.60;77.60;;;11.87;61.37;101559.66;5048532;28;20041;-75
2023/04/19 02:38:40;;;;;;;18.33;12.70;;;12.60;77.60;;;11.87;61.32;101550.81;5047887;28;20059;-76
2023/04/19 02:41:07;;;;;;;20.15;12.30;;;12.50;77.60;;;11.87;61.11;101553.47;5046173;28;20126;-75
2023/04/19 02:43:35;;;;;;;17.75;12.23;;;12.60;77.50;;;11.84;61.08;101550.16;5037777;28;20072;-74
2023/04/19 02:46:02;;;;;;;16.17;11.77;;;12.50;77.50;;;11.84;60.93;101550.16;5048914;28;20047;-75
2023/04/19 02:48:31;;;;;;;17.73;12.57;;;12.50;77.30;;;11.82;60.80;101548.72;5046486;28;20128;-75
2023/04/19 02:50:58;;;;;;;17.25;11.48;;;12.50;77.20;;;11.78;60.78;101558.91;5037999;28;20057;-75
2023/04/19 02:53:25;;;;;;;17.33;11.35;;;12.50;77.10;;;11.74;60.20;101552.31;5046259;28;20095;-74
2023/04/19 02:55:53;;;;;;;16.17;10.52;;;12.50;76.60;;;11.74;60.26;101554.97;5045093;28;20036;-75
2023/04/19 02:58:20;;;;;;;18.50;11.38;;;12.50;76.60;;;11.67;59.97;101551.44;5043657;28;20155;-74
2023/04/19 03:00:59;;;;;;;13.95;9.70;;;12.40;76.20;;;11.67;59.92;101550.59;5043883;22;20100;-82
2023/04/19 03:03:26;;;;;;;15.27;10.75;;;12.40;76.10;;;11.66;60.00;101549.75;4987865;28;20054;-83
2023/04/19 03:05:55;;;;;;;14.93;9.95;;;12.40;76.30;;;11.69;60.06;101538.69;4987869;28;20490;-81
2023/04/19 03:08:22;;;;;;;15.65;9.95;;;12.40;76.40;;;11.73;59.92;101552.50;4987041;28;20057;-81
2023/04/19 03:10:50;;;;;;;15.95;10.13;;;12.40;76.10;;;11.73;59.93;101547.97;5003184;28;20046;-83
2023/04/19 03:13:17;;;;;;;15.18;9.70;;;12.40;76.00;;;11.75;59.59;101548.59;4986949;28;20057;-83
2023/04/19 03:15:44;;;;;;;13.90;9.38;;;12.40;75.80;;;11.77;59.35;101551.09;4984125;28;20049;-81
2023/04/19 03:18:12;;;;;;;12.88;8.88;;;12.40;75.70;;;11.78;59.32;101548.22;4994745;28;20050;-82
2023/04/19 03:20:42;;;;;;;13.82;8.60;;;12.50;75.60;;;11.79;59.06;101549.88;4986849;28;20524;-81
2023/04/19 03:23:11;;;;;;;13.70;8.57;;;12.50;75.50;;;11.81;58.94;101545.19;4977696;28;20074;-82
2023/04/19 03:25:38;;;;;;;14.98;8.57;;;12.50;75.20;;;11.79;58.32;101541.03;4992884;28;20105;-82
2023/04/19 03:28:36;;;;;;;12.75;8.27;;;12.50;74.70;;;11.82;58.43;101544.19;4988834;28;20526;-84
2023/04/19 03:31:31;;;;;;;12.00;7.57;;;12.50;74.70;;;11.80;58.18;101540.84;4983866;28;20592;-82
2023/04/19 03:33:59;;;;;;;12.50;7.10;;;12.50;74.50;;;11.79;58.00;101547.22;4988390;28;20584;-82
2023/04/19 03:36:32;;;;;;;13.80;8.20;;;12.50;74.30;;;11.78;58.12;101545.56;4981224;28;20506;-83
2023/04/19 03:39:03;;;;;;;12.95;7.40;;;12.50;74.40;;;11.75;58.21;101540.59;4987542;28;20038;-82
2023/04/19 03:41:30;;;;;;;11.70;7.60;;;12.50;74.30;;;11.76;58.13;101534.25;4979186;28;20030;-82
2023/04/19 03:44:17;;;;;;;11.13;7.60;;;12.40;74.50;;;11.77;58.17;101530.56;4988285;28;20152;-81
2023/04/19 03:46:47;;;;;;;12.73;8.20;;;12.50;74.30;;;11.75;58.00;101537.91;4977087;28;20045;-82
2023/04/19 03:49:16;;;;;;;11.18;7.28;;;12.40;74.10;;;11.76;57.88;101531.56;5001342;28;20056;-82
2023/04/19 03:51:47;;;;;;;;;;;12.40;73.90;;;11.74;57.59;101532.78;4981781;28;20532;-81
2023/04/19 03:54:16;;;;;;;10.95;6.70;;;12.40;73.70;;;11.70;57.12;101531.50;4990160;28;19921;-81
2023/04/19 03:56:43;;;;;;;9.93;6.82;;;12.40;73.10;;;11.62;57.14;101528.97;4986900;28;20054;-81
2023/04/19 03:59:11;;;;;;;11.95;7.10;;;12.30;73.20;;;11.64;57.32;101524.25;4987802;28;20050;-82
2023/04/19 04:01:40;;;;;;;11.85;7.25;;;12.30;73.20;;;11.65;56.96;101526.72;4981614;28;20050;-82
2023/04/19 04:04:08;;;;;;;10.48;6.75;;;12.30;73.10;;;11.60;57.19;101523.81;4981807;28;20054;-83
2023/04/19 04:06:35;;;;;;;12.45;7.60;;;12.30;73.10;;;11.61;57.31;101530.81;4987004;28;20466;-83
2023/04/19 04:09:03;;;;;;;10.35;6.95;;;12.30;73.30;;;11.62;57.34;101531.66;4986355;28;20105;-81
2023/04/19 04:11:32;;;;;;;11.13;7.30;;;12.30;73.30;;;11.63;57.25;101528.78;4979417;28;20049;-82
2023/04/19 04:13:59;;;;;;;11.93;6.53;;;12.30;73.30;;;11.59;56.79;101527.50;4994631;28;20113;-82
2023/04/19 04:16:29;;;;;;;12.13;7.03;;;12.30;72.90;;;11.52;56.73;101535.47;4982440;28;20486;-82
2023/04/19 04:18:56;;;;;;;11.13;6.65;;;12.30;72.70;;;11.53;56.44;101533.63;4995241;28;20526;-82
2023/04/19 04:21:27;;;;;;;11.05;6.70;;;12.20;72.20;;;11.50;55.94;101534.81;5000890;28;20140;-82
2023/04/19 04:23:55;;;;;;;9.95;6.25;;;12.20;71.70;;;11.46;55.54;101538.06;4981515;28;20054;-82
2023/04/19 04:26:38;;;;;;;10.40;6.10;;;12.20;71.40;;;11.44;55.74;101540.09;4977914;28;20077;-82
2023/04/19 04:29:13;;;;;;;11.10;6.63;;;12.10;71.60;;;11.43;54.96;101546.47;5000938;28;20141;-82
2023/04/19 04:31:41;;;;;;;8.57;5.65;;;12.10;70.80;;;11.35;54.65;101542.88;4982069;28;20054;-82
2023/04/19 04:34:09;;;;;;;9.68;5.88;;;12.10;70.30;;;11.30;54.28;101539.97;4983463;28;20153;-85
2023/04/19 04:36:48;;;;;;;13.07;5.80;;;12.00;69.90;;;11.29;54.35;101546.31;4995152;28;20074;-81
2023/04/19 04:39:17;;;;;;;10.45;6.22;;;12.00;70.10;;;11.27;54.10;101550.19;4969587;28;20450;-86
2023/04/19 04:41:46;;;;;;;10.65;6.28;;;11.90;69.70;;;11.24;53.79;101539.91;4997210;28;20054;-84
2023/04/19 04:44:14;;;;;;;9.75;5.95;;;12.00;69.50;;;11.25;53.51;101541.53;4987387;28;20078;-87
2023/04/19 04:46:43;;;;;;;9.30;6.07;;;11.90;69.10;;;11.21;53.46;101553.63;4979771;28;20193;-85
2023/04/19 04:49:13;;;;;;;11.13;6.30;;;11.90;69.00;;;11.16;53.38;101548.03;4985203;28;20099;-86
2023/04/19 04:51:42;;;;;;;11.85;6.30;;;11.80;68.80;;;11.15;53.43;101541.84;4988293;28;20491;-86
2023/04/19 04:54:10;;;;;;;11.25;6.35;;;12.00;69.20;;;11.12;52.91;101544.88;5001643;28;20057;-86
2023/04/19 04:56:38;;;;;;;12.60;6.80;;;11.80;68.40;;;11.08;52.73;101536.44;4983890;28;20046;-88
2023/04/19 04:59:07;;;;;;;9.57;5.82;;;11.80;68.00;;;11.07;53.16;101547.28;4988068;28;20043;-84
2023/04/19 05:01:38;;;;;;;12.20;6.60;;;11.80;68.70;;;11.05;52.52;101552.84;4987190;28;20046;-88
2023/04/19 05:04:06;;;;;;;11.15;6.50;;;11.70;68.10;;;11.07;53.00;101548.13;4989209;28;20058;-88
2023/04/19 05:06:33;;;;;;;10.68;6.65;;;11.70;68.40;;;11.08;52.87;101540.97;4989015;28;20042;-86
2023/04/19 05:09:00;;;;;;;8.93;6.10;;;11.70;68.00;;;11.05;52.48;101541.31;4979641;28;20525;-88
2023/04/19 05:11:33;;;;;;;9.35;6.38;;;11.70;67.80;;;11.07;52.58;101544.63;4980594;28;20074;-86
2023/04/19 05:14:01;;;;;;;13.82;6.88;;;11.70;68.10;;;11.07;52.49;101539.28;4988116;28;20070;-88
2023/04/19 05:16:30;;;;;;;12.18;6.38;;;11.70;68.00;;;11.08;52.57;101546.31;4992603;28;20506;-88
2023/04/19 05:18:57;;;;;;;14.15;6.95;;;11.70;68.10;;;11.11;52.81;101542.41;4987611;28;20090;-86
2023/04/19 05:21:26;;;;;;;10.13;6.60;;;11.70;68.30;;;11.20;52.80;101554.63;5003300;28;20054;-87
2023/04/19 05:23:54;;;;;;;10.20;6.55;;;11.80;68.30;;;11.24;52.35;101547.91;4987877;28;20513;-83
2023/04/19 05:26:21;;;;;;;16.00;7.10;;;11.90;67.90;;;11.29;52.43;101540.16;4987410;28;20062;-85
2023/04/19 05:28:53;;;;;;;9.73;6.80;;;12.00;67.80;;;11.32;52.43;101548.63;5006558;28;20457;-86
2023/04/19 05:31:43;;;;;;;11.90;7.40;;;12.00;67.70;;;11.39;52.10;101547.84;4986988;28;20053;-86
2023/04/19 05:34:19;;;;;;;10.48;6.22;;;12.10;67.50;;;11.44;52.19;101548.94;4987607;28;20054;-85
2023/04/19 05:36:47;;;;;;;11.80;7.32;;;12.10;67.50;;;11.49;52.03;101545.69;4991965;28;20369;-84
2023/04/19 05:39:15;;;;;;;13.60;7.05;;;12.10;67.30;;;11.48;51.87;101546.72;4981387;28;20034;-85
2023/04/19 05:41:43;;;;;;;12.20;6.80;;;12.20;67.00;;;11.49;51.82;101556.38;4989503;28;20097;-84
2023/04/19 05:44:10;;;;;;;12.77;7.85;;;12.10;67.10;;;11.41;51.87;101543.97;4986447;28;20047;-85
2023/04/19 05:46:37;;;;;;;12.30;8.32;;;12.10;67.10;;;11.42;52.22;101548.31;4998101;28;20078;-83
2023/04/19 05:49:08;;;;;;;11.75;7.93;;;12.10;67.60;;;11.40;52.25;101547.66;4987951;28;20051;-85
2023/04/19 05:52:00;;;;;;;12.23;7.47;;;12.00;67.40;;;11.36;52.30;101549.06;5000793;28;20050;-85
2023/04/19 05:54:44;;;;;;;16.98;7.88;;;12.10;67.70;;;11.37;52.71;101544.53;4981678;28;20054;-83
2023/04/19 05:57:11;;;;;;;11.57;6.97;;;12.00;68.10;;;11.27;52.81;101539.50;4982311;28;20039;-84
2023/04/19 05:59:39;;;;;;;12.85;7.18;;;11.90;68.20;;;11.15;52.79;101538.34;4983345;28;20145;-83
2023/04/19 06:02:07;;;;;;;13.48;7.90;;;11.90;68.10;;;11.14;52.77;101542.88;4998417;28;20058;-81
2023/04/19 06:04:38;;;;;;;12.98;8.40;;;11.80;68.10;;;11.16;53.08;101537.34;4985689;28;20091;-86
2023/04/19 06:07:05;;;;;;;12.05;8.00;;;11.80;68.40;;;11.15;52.64;101544.53;4988630;28;20049;-86
2023/04/19 06:09:32;;;;;;;17.67;8.13;;;11.80;67.70;;;11.08;52.01;101539.13;4988808;28;20046;-88
2023/04/19 06:12:00;;;;;;;12.60;7.35;;;11.80;67.30;;;11.04;51.11;101537.00;4982845;28;20046;-86
2023/04/19 06:14:28;;;;;;;16.80;7.82;;;11.70;66.30;;;11.02;51.08;101542.50;4987059;28;20054;-86
2023/04/19 06:16:56;;;;;;;16.52;7.68;;;11.70;66.00;;;10.99;50.53;101542.91;4986434;28;20700;-87
2023/04/19 06:19:23;;;;;;;11.63;6.90;;;11.70;65.50;;;10.99;49.76;101542.09;4986373;28;20046;-88
2023/04/19 06:21:52;;;;;;;11.88;6.93;;;11.60;64.60;;;10.95;48.96;101538.97;4987322;28;20484;-85
2023/04/19 06:24:19;;;;;;;14.80;7.65;;;11.60;63.40;;;10.86;47.93;101541.91;4987683;28;20061;-85
2023/04/19 06:26:48;;;;;;;13.18;6.93;;;11.60;62.20;;;10.83;48.24;101537.75;4985395;28;20464;-87
2023/04/19 06:29:15;;;;;;;14.30;6.88;;;11.50;62.40;;;10.86;48.10;101537.41;5005027;28;20054;-86
2023/04/19 06:31:44;;;;;;;12.45;6.85;;;11.50;62.20;;;10.86;47.84;101537.41;4987206;28;20038;-87
2023/04/19 06:34:14;;;;;;;14.38;6.55;;;11.50;61.90;;;10.98;47.63;101545.75;4991699;28;20054;-86
2023/04/19 06:36:41;;;;;;;10.75;5.90;;;11.60;61.80;;;11.05;45.99;101542.16;4996699;28;20081;-88
2023/04/19 06:39:10;;;;;;;12.75;6.25;;;11.70;59.60;;;11.16;46.21;101537.34;4976617;28;20137;-86
2023/04/19 06:41:37;;;;;;;11.82;6.32;;;11.80;59.60;;;11.32;45.51;101531.75;4985832;28;20499;-85
2023/04/19 06:44:06;;;;;;;16.63;5.93;;;12.00;58.70;;;11.42;44.37;101531.44;4969716;28;20050;-85
2023/04/19 06:46:33;;;;;;;8.48;5.38;;;12.10;57.30;;;11.48;44.36;101547.56;4982058;28;20050;-86
2023/04/19 06:49:00;;;;;;;10.45;6.00;;;12.20;57.10;;;11.54;43.38;101548.63;4988142;28;20077;-87
2023/04/19 06:51:28;;;;;;;10.65;6.40;;;12.30;56.10;;;11.59;43.88;101533.66;4987178;28;20164;-86
2023/04/19 06:53:55;;;;;;;11.77;6.03;;;12.40;56.30;;;11.68;43.32;101534.38;4993578;28;20057;-86
2023/04/19 06:56:44;;;;;;;11.90;5.55;;;12.40;55.40;;;11.75;43.46;101532.56;4983531;28;20116;-87
2023/04/19 06:59:12;;;;;;;12.55;6.40;;;12.50;55.50;;;11.80;42.51;101532.81;4989690;28;20078;-87
2023/04/19 07:01:40;;;;;;;10.00;5.85;;;12.60;54.40;;;11.91;43.39;101523.50;4988218;28;20050;-86
2023/04/19 07:04:08;;;;;;;11.05;5.50;;;12.60;55.30;;;12.07;42.85;101546.44;4990256;28;20050;-89
2023/04/19 07:06:36;;;;;;;9.73;5.57;;;12.80;54.90;;;12.11;42.75;101526.31;4986120;28;20125;-86
2023/04/19 07:09:04;;;;;;;12.20;5.78;;;12.90;54.50;;;12.22;42.56;101517.75;4997668;28;20123;-89
2023/04/19 07:11:31;;;;;;;10.93;5.38;;;12.90;54.30;;;12.28;41.41;101524.97;4990603;28;20047;-87
2023/04/19 07:14:00;;;;;;;10.63;5.22;;;13.00;53.60;;;12.27;42.52;101520.66;4989600;28;20129;-85
2023/04/19 07:16:28;;;;;;;8.93;4.70;;;13.00;54.10;;;12.42;40.78;101536.59;4981580;28;20054;-90
2023/04/19 07:18:56;;;;;;;10.07;5.43;;;13.10;53.10;;;12.32;41.45;101518.22;4990037;28;20129;-89
2023/04/19 07:21:25;;;;;;;9.18;5.50;;;13.10;53.60;;;12.38;41.56;101521.94;4980799;28;20075;-86
2023/04/19 07:23:52;;;;;;;11.82;5.50;;;13.10;53.60;;;12.48;41.43;101516.25;4986514;28;20057;-88
2023/04/19 07:26:20;;;;;;;12.35;5.35;;;13.20;53.40;;;12.55;41.46;101528.63;4981770;28;20043;-89
2023/04/19 07:28:47;;;;;;;14.50;5.70;;;13.30;53.40;;;12.61;40.73;101527.03;4993963;28;20050;-87
2023/04/19 07:31:20;;;;;;;11.85;5.32;;;13.30;52.50;;;12.60;40.31;101514.66;4983133;28;20061;-88
2023/04/19 07:33:47;;;;;;;11.32;5.47;;;13.40;52.10;;;12.66;40.77;101505.84;4986334;28;20042;-88
2023/04/19 07:36:14;;;;;;;16.33;6.18;;;13.40;52.30;;;12.66;40.78;101515.72;4987873;28;20046;-85
2023/04/19 07:38:41;;;;;;;10.30;5.60;;;13.40;52.60;;;12.72;39.84;101507.72;4985681;28;20050;-85
2023/04/19 07:41:09;;;;;;;11.35;5.53;;;13.50;51.30;;;12.75;40.38;101518.03;4982040;28;20038;-86
2023/04/19 07:43:36;;;;;;;10.38;4.95;;;13.50;52.20;;;12.74;39.87;101521.72;5010516;28;20041;-85
2023/04/19 07:46:10;;;;;;;13.13;5.65;;;13.50;51.30;;;12.73;39.91;101517.38;4985346;28;20482;-85
2023/04/19 07:48:39;;;;;;;13.45;5.40;;;13.50;51.30;;;12.77;39.65;101507.09;4983458;28;20050;-85
2023/04/19 07:51:10;;;;;;;9.98;5.28;;;13.60;51.10;;;12.76;39.26;101511.63;4982984;28;20537;-85
2023/04/19 07:53:40;;;;;;;9.45;5.13;;;13.60;50.60;;;12.73;39.31;101511.22;4985245;28;20459;-85
2023/04/19 07:56:08;;;;;;;11.73;4.68;;;13.50;50.40;;;12.62;38.92;101507.25;4982622;28;20046;-86
2023/04/19 07:58:36;;;;;;;9.23;5.03;;;13.50;50.00;;;12.73;39.17;101503.19;4978432;28;20145;-87
2023/04/19 08:01:04;;;;;;;13.10;4.57;;;13.50;50.20;;;12.72;38.04;101499.69;4985840;28;20042;-87
2023/04/19 08:03:34;;;;;;;9.27;4.85;;;13.50;48.70;;;12.70;38.09;101504.41;4988564;28;20066;-86
2023/04/19 08:06:06;;;;;;;8.18;4.50;;;13.50;49.10;;;12.74;38.32;101512.88;4982610;28;20047;-85
2023/04/19 08:08:33;;;;;;;11.68;5.10;;;13.50;49.20;;;12.81;38.44;101506.50;4985596;28;20066;-86
2023/04/19 08:11:01;;;;;;;10.88;4.80;;;13.60;49.10;;;12.91;37.59;101510.66;4979762;28;20054;-86
2023/04/19 08:13:28;;;;;;;7.05;4.30;;;13.60;48.10;;;12.75;37.64;101512.66;4985540;28;20056;-86
2023/04/19 08:15:55;;;;;;;9.57;4.38;;;13.50;48.20;;;12.61;37.04;101519.00;4992370;28;20042;-87
2023/04/19 08:18:22;;;;;;;8.00;4.07;;;13.40;47.50;;;12.63;37.60;101516.94;4991466;28;20046;-81
2023/04/19 08:20:50;;;;;;;8.00;4.68;;;13.40;48.30;;;12.67;37.53;101518.19;4992388;28;20049;-80
2023/04/19 08:23:19;;;;;;;10.75;4.75;;;13.50;48.20;;;12.72;37.62;101510.38;4993605;28;20050;-81
2023/04/19 08:25:46;;;;;;;8.35;4.40;;;13.50;48.50;;;12.75;37.99;101515.34;4988197;28;20065;-82
2023/04/19 08:28:13;;;;;;;11.00;4.10;;;13.50;48.80;;;12.82;38.66;101510.00;4991388;28;20034;-81
2023/04/19 08:30:41;;;;;;;8.93;4.03;;;13.60;49.70;;;12.84;38.17;101508.81;4998058;28;20046;-82
2023/04/19 08:33:09;;;;;;;9.30;4.10;;;13.60;48.80;;;12.85;38.15;101517.66;4993351;28;20054;-80
2023/04/19 08:35:38;;;;;;;7.85;4.20;;;13.60;48.60;;;12.91;38.42;101548.97;4993308;28;20042;-81
2023/04/19 08:38:05;;;;;;;7.18;3.85;;;13.60;49.00;;;12.84;37.57;101530.22;4993292;28;20046;-81
2023/04/19 08:40:35;;;;;;;7.40;3.78;;;13.60;48.00;;;12.84;37.49;101516.00;4988017;28;20117;-81
2023/04/19 08:43:06;;;;;;;8.63;4.55;;;13.60;48.10;;;12.77;37.53;101539.22;4987748;28;20525;-79
2023/04/19 08:45:34;;;;;;;10.25;4.22;;;13.50;48.00;;;12.67;38.34;101528.06;4990659;28;20045;-80
2023/04/19 08:48:03;;;;;;;8.73;4.00;;;13.50;48.90;;;12.59;37.24;101526.38;4985740;28;20125;-81
2023/04/19 08:50:30;;;;;;;11.65;4.32;;;13.30;47.60;;;12.59;38.36;101534.41;4986587;28;20034;-83
2023/04/19 08:53:00;;;;;;;11.25;4.78;;;13.30;49.00;;;12.65;38.42;101543.50;4990493;28;20050;-83
2023/04/19 08:55:28;;;;;;;11.75;4.50;;;13.40;49.00;;;12.57;38.22;101523.91;4990735;28;20141;-82
2023/04/19 08:57:58;;;;;;;11.50;4.43;;;13.30;48.80;;;12.59;39.26;101529.06;4971396;28;20182;-81
2023/04/19 09:00:25;;;;;;;9.40;4.20;;;13.30;50.30;;;12.56;38.48;101524.09;4972718;28;20050;-81
2023/04/19 09:02:54;;;;;;;8.88;4.07;;;13.30;49.10;;;12.46;38.13;101527.16;4984620;28;20060;-82
2023/04/19 09:05:22;;;;;;;10.90;4.25;;;13.20;48.70;;;12.46;38.12;101518.28;4986250;28;20042;-82
2023/04/19 09:07:49;;;;;;;8.13;4.32;;;13.20;48.80;;;12.53;38.59;101527.16;4991697;28;20045;-82
2023/04/19 09:10:19;;;;;;;11.05;4.05;;;13.20;49.40;;;12.43;38.16;101516.00;4985789;28;20042;-81
2023/04/19 09:13:02;;;;;;;8.15;4.05;;;13.20;48.70;;;12.44;38.58;101515.78;4989144;28;20116;-82
2023/04/19 09:15:38;;;;;;;10.13;3.92;;;13.10;49.30;;;12.44;38.33;101509.63;5004213;28;20149;-82
2023/04/19 09:18:08;;;;;;;7.97;3.50;;;13.10;49.10;;;12.52;39.32;101506.78;4982986;28;20125;-83
2023/04/19 09:20:39;;;;;;;6.78;3.35;;;13.20;49.90;;;12.53;37.85;101503.09;4983316;28;20043;-81
2023/04/19 09:23:08;;;;;;;5.43;2.92;;;13.20;48.20;;;12.55;37.54;101498.38;4989645;28;20096;-82
2023/04/19 09:25:35;;;;;;;9.70;3.20;;;13.30;47.90;;;12.57;36.61;101499.00;4989836;28;20053;-83
2023/04/19 09:28:14;;;;;;;6.85;2.92;;;13.20;46.90;;;12.56;36.15;101500.03;4982158;28;20046;-82
2023/04/19 09:30:42;;;;;;;13.07;2.88;;;13.20;46.00;;;12.54;35.77;101494.03;4986434;28;20057;-84
2023/04/19 09:33:09;;;;;;;5.35;2.70;;;13.20;45.70;;;12.48;35.60;101501.00;4991953;28;20073;-82
2023/04/19 09:35:46;;;;;;;4.63;2.47;;;13.20;45.30;;;12.39;35.60;101502.19;4981553;28;20053;-81
2023/04/19 09:38:14;;;;;;;5.80;2.30;;;13.10;45.60;;;12.34;34.48;101504.63;5003376;28;20447;-82
2023/04/19 09:40:43;;;;;;;5.03;2.10;;;13.10;44.10;;;12.36;35.09;101500.75;4989422;28;20709;-82
2023/04/19 09:43:12;;;;;;;6.32;2.30;;;13.10;44.80;;;12.41;34.94;101512.72;4991228;28;20121;-83
2023/04/19 09:45:43;;;;;;;6.50;1.92;;;13.10;44.40;;;12.35;34.49;101495.59;4987495;28;20116;-82
2023/04/19 09:48:12;;;;;;;6.60;2.83;;;13.10;43.80;;;12.41;34.99;101497.50;4991257;28;20046;-82
2023/04/19 09:50:53;;;;;;;5.32;1.90;;;13.10;44.60;;;12.39;34.45;101486.13;4989322;28;20049;-82
2023/04/19 09:53:20;;;;;;;4.73;2.13;;;13.10;43.90;;;12.38;34.17;101493.34;4991428;28;20054;-83
2023/04/19 09:55:48;;;;;;;6.72;2.25;;;13.10;43.10;;;12.33;34.54;101502.97;4990151;28;20046;-82
2023/04/19 09:58:17;;;;;;;5.22;2.40;;;13.10;43.80;;;12.36;34.31;101484.69;4985987;28;20043;-82
2023/04/19 10:00:46;;;;;;;7.07;2.20;;;13.10;43.40;;;12.29;33.13;101491.84;4982944;28;20048;-83
2023/04/19 10:03:15;;;;;;;5.75;2.28;;;13.00;41.60;;;12.15;33.21;101476.78;4990834;28;20065;-81
2023/04/19 10:05:45;;;;;;;5.07;2.50;;;12.90;41.90;;;12.08;33.39;101484.72;4991519;28;20046;-83
2023/04/19 10:08:14;;;;;;;8.63;2.75;;;12.90;42.20;;;12.07;32.88;101476.91;4988253;28;20042;-82
2023/04/19 10:10:45;;;;;;;7.40;2.40;;;12.80;41.40;;;12.05;32.97;101505.69;4971670;28;20053;-83
2023/04/19 10:13:17;;;;;;;5.97;2.42;;;12.80;41.60;;;12.06;33.68;101485.97;4986921;28;20047;-83